sensor_id;sensor_type;location;lat;lon;timestamp;P1;durP1;ratioP1;P2;durP2;ratioP2
45077;SDS011;60508;42.622;25.416;2023-04-06T00:02:12;6.35;;;4.40;;
45077;SDS011;60508;42.622;25.416;2023-04-06T00:04:38;4.82;;;4.05;;
45077;SDS011;60508;42.622;25.416;2023-04-06T00:07:04;4.28;;;3.75;;
45077;SDS011;60508;42.622;25.416;2023-04-06T00:09:30;3.72;;;3.40;;
45077;SDS011;60508;42.622;25.416;2023-04-06T00:11:56;4.72;;;3.72;;
45077;SDS011;60508;42.622;25.416;2023-04-06T00:14:23;4.57;;;4.07;;
45077;SDS011;60508;42.622;25.416;2023-04-06T00:16:49;5.35;;;4.53;;
45077;SDS011;60508;42.622;25.416;2023-04-06T00:19:15;4.45;;;4.05;;
45077;SDS011;60508;42.622;25.416;2023-04-06T00:21:41;4.85;;;4.35;;
45077;SDS011;60508;42.622;25.416;2023-04-06T00:24:07;4.85;;;4.32;;
45077;SDS011;60508;42.622;25.416;2023-04-06T00:26:33;5.60;;;4.15;;
45077;SDS011;60508;42.622;25.416;2023-04-06T00:28:59;5.25;;;4.05;;
45077;SDS011;60508;42.622;25.416;2023-04-06T00:31:25;5.10;;;4.53;;
45077;SDS011;60508;42.622;25.416;2023-04-06T00:33:51;5.00;;;4.50;;
45077;SDS011;60508;42.622;25.416;2023-04-06T00:36:17;6.47;;;5.25;;
45077;SDS011;60508;42.622;25.416;2023-04-06T00:38:43;5.20;;;3.78;;
45077;SDS011;60508;42.622;25.416;2023-04-06T00:41:10;6.18;;;5.28;;
45077;SDS011;60508;42.622;25.416;2023-04-06T00:43:37;5.57;;;5.07;;
45077;SDS011;60508;42.622;25.416;2023-04-06T00:46:03;4.95;;;4.43;;
45077;SDS011;60508;42.622;25.416;2023-04-06T00:48:29;6.80;;;5.38;;
45077;SDS011;60508;42.622;25.416;2023-04-06T00:50:57;5.38;;;4.85;;
45077;SDS011;60508;42.622;25.416;2023-04-06T00:53:23;4.85;;;4.38;;
45077;SDS011;60508;42.622;25.416;2023-04-06T00:55:51;7.38;;;4.78;;
45077;SDS011;60508;42.622;25.416;2023-04-06T00:58:17;4.93;;;4.43;;
45077;SDS011;60508;42.622;25.416;2023-04-06T01:00:49;6.07;;;5.32;;
45077;SDS011;60508;42.622;25.416;2023-04-06T01:03:18;5.60;;;4.80;;
45077;SDS011;60508;42.622;25.416;2023-04-06T01:05:46;6.57;;;5.45;;
45077;SDS011;60508;42.622;25.416;2023-04-06T01:08:21;5.45;;;4.57;;
45077;SDS011;60508;42.622;25.416;2023-04-06T01:10:52;5.60;;;4.68;;
45077;SDS011;60508;42.622;25.416;2023-04-06T01:13:24;7.88;;;5.18;;
45077;SDS011;60508;42.622;25.416;2023-04-06T01:18:27;5.60;;;4.50;;
45077;SDS011;60508;42.622;25.416;2023-04-06T01:21:03;5.95;;;4.65;;
45077;SDS011;60508;42.622;25.416;2023-04-06T01:23:29;6.63;;;5.28;;
45077;SDS011;60508;42.622;25.416;2023-04-06T01:25:55;6.15;;;4.78;;
45077;SDS011;60508;42.622;25.416;2023-04-06T01:28:22;7.50;;;5.43;;
45077;SDS011;60508;42.622;25.416;2023-04-06T01:31:14;6.10;;;4.80;;
45077;SDS011;60508;42.622;25.416;2023-04-06T01:33:47;12.52;;;7.75;;
45077;SDS011;60508;42.622;25.416;2023-04-06T01:36:16;7.13;;;5.03;;
45077;SDS011;60508;42.622;25.416;2023-04-06T01:41:13;5.80;;;5.05;;
45077;SDS011;60508;42.622;25.416;2023-04-06T01:43:51;6.05;;;5.28;;
45077;SDS011;60508;42.622;25.416;2023-04-06T01:46:23;7.03;;;5.35;;
45077;SDS011;60508;42.622;25.416;2023-04-06T01:48:49;5.13;;;4.70;;
45077;SDS011;60508;42.622;25.416;2023-04-06T01:51:35;6.03;;;5.20;;
45077;SDS011;60508;42.622;25.416;2023-04-06T01:54:21;6.70;;;5.05;;
45077;SDS011;60508;42.622;25.416;2023-04-06T01:57:08;5.95;;;5.35;;
45077;SDS011;60508;42.622;25.416;2023-04-06T02:00:02;4.57;;;4.18;;
45077;SDS011;60508;42.622;25.416;2023-04-06T02:02:43;7.07;;;5.32;;
45077;SDS011;60508;42.622;25.416;2023-04-06T02:05:16;5.63;;;5.03;;
45077;SDS011;60508;42.622;25.416;2023-04-06T02:07:42;7.05;;;5.38;;
45077;SDS011;60508;42.622;25.416;2023-04-06T02:10:13;9.45;;;5.93;;
45077;SDS011;60508;42.622;25.416;2023-04-06T02:12:40;5.43;;;4.93;;
45077;SDS011;60508;42.622;25.416;2023-04-06T02:15:09;5.90;;;5.22;;
45077;SDS011;60508;42.622;25.416;2023-04-06T02:17:39;5.22;;;4.72;;
45077;SDS011;60508;42.622;25.416;2023-04-06T02:20:05;5.68;;;5.03;;
45077;SDS011;60508;42.622;25.416;2023-04-06T02:22:31;8.52;;;5.82;;
45077;SDS011;60508;42.622;25.416;2023-04-06T02:24:58;5.97;;;5.00;;
45077;SDS011;60508;42.622;25.416;2023-04-06T02:27:25;7.63;;;6.00;;
45077;SDS011;60508;42.622;25.416;2023-04-06T02:29:51;8.05;;;6.53;;
45077;SDS011;60508;42.622;25.416;2023-04-06T02:32:19;7.85;;;6.68;;
45077;SDS011;60508;42.622;25.416;2023-04-06T02:34:46;6.85;;;5.97;;
45077;SDS011;60508;42.622;25.416;2023-04-06T02:37:13;8.95;;;5.90;;
45077;SDS011;60508;42.622;25.416;2023-04-06T02:39:39;9.77;;;5.75;;
45077;SDS011;60508;42.622;25.416;2023-04-06T02:42:08;7.55;;;6.28;;
45077;SDS011;60508;42.622;25.416;2023-04-06T02:44:34;7.15;;;6.15;;
45077;SDS011;60508;42.622;25.416;2023-04-06T02:47:01;9.05;;;5.93;;
45077;SDS011;60508;42.622;25.416;2023-04-06T02:49:27;8.60;;;6.78;;
45077;SDS011;60508;42.622;25.416;2023-04-06T02:51:55;6.55;;;5.78;;
45077;SDS011;60508;42.622;25.416;2023-04-06T02:54:26;10.88;;;5.68;;
45077;SDS011;60508;42.622;25.416;2023-04-06T02:56:52;8.07;;;6.10;;
45077;SDS011;60508;42.622;25.416;2023-04-06T02:59:18;7.95;;;7.13;;
45077;SDS011;60508;42.622;25.416;2023-04-06T03:01:55;6.55;;;5.82;;
45077;SDS011;60508;42.622;25.416;2023-04-06T03:04:21;7.30;;;5.78;;
45077;SDS011;60508;42.622;25.416;2023-04-06T03:06:51;7.32;;;5.57;;
45077;SDS011;60508;42.622;25.416;2023-04-06T03:09:29;7.15;;;6.13;;
45077;SDS011;60508;42.622;25.416;2023-04-06T03:11:55;6.50;;;5.80;;
45077;SDS011;60508;42.622;25.416;2023-04-06T03:14:22;6.68;;;5.97;;
45077;SDS011;60508;42.622;25.416;2023-04-06T03:16:49;9.25;;;7.10;;
45077;SDS011;60508;42.622;25.416;2023-04-06T03:19:19;9.15;;;7.25;;
45077;SDS011;60508;42.622;25.416;2023-04-06T03:21:45;16.10;;;10.27;;
45077;SDS011;60508;42.622;25.416;2023-04-06T03:24:13;8.75;;;6.80;;
45077;SDS011;60508;42.622;25.416;2023-04-06T03:26:39;9.15;;;7.40;;
45077;SDS011;60508;42.622;25.416;2023-04-06T03:29:07;8.80;;;6.63;;
45077;SDS011;60508;42.622;25.416;2023-04-06T03:31:33;9.13;;;6.95;;
45077;SDS011;60508;42.622;25.416;2023-04-06T03:34:05;9.05;;;7.15;;
45077;SDS011;60508;42.622;25.416;2023-04-06T03:36:34;7.68;;;6.70;;
45077;SDS011;60508;42.622;25.416;2023-04-06T03:39:02;8.10;;;6.32;;
45077;SDS011;60508;42.622;25.416;2023-04-06T03:41:31;8.98;;;6.60;;
45077;SDS011;60508;42.622;25.416;2023-04-06T03:44:12;7.65;;;6.63;;
45077;SDS011;60508;42.622;25.416;2023-04-06T03:46:40;7.72;;;5.18;;
45077;SDS011;60508;42.622;25.416;2023-04-06T03:49:06;11.55;;;6.90;;
45077;SDS011;60508;42.622;25.416;2023-04-06T03:51:33;6.82;;;6.13;;
45077;SDS011;60508;42.622;25.416;2023-04-06T03:53:59;9.73;;;7.13;;
45077;SDS011;60508;42.622;25.416;2023-04-06T03:56:26;12.45;;;7.15;;
45077;SDS011;60508;42.622;25.416;2023-04-06T03:58:53;11.30;;;7.43;;
45077;SDS011;60508;42.622;25.416;2023-04-06T04:01:20;13.02;;;8.57;;
45077;SDS011;60508;42.622;25.416;2023-04-06T04:03:46;16.85;;;9.20;;
45077;SDS011;60508;42.622;25.416;2023-04-06T04:06:13;15.13;;;8.65;;
45077;SDS011;60508;42.622;25.416;2023-04-06T04:08:40;13.85;;;9.00;;
45077;SDS011;60508;42.622;25.416;2023-04-06T04:11:07;9.15;;;6.80;;
45077;SDS011;60508;42.622;25.416;2023-04-06T04:13:33;9.65;;;7.60;;
45077;SDS011;60508;42.622;25.416;2023-04-06T04:16:03;17.05;;;8.88;;
45077;SDS011;60508;42.622;25.416;2023-04-06T04:18:29;12.88;;;8.98;;
45077;SDS011;60508;42.622;25.416;2023-04-06T04:20:56;12.65;;;9.35;;
45077;SDS011;60508;42.622;25.416;2023-04-06T04:23:23;13.30;;;8.77;;
45077;SDS011;60508;42.622;25.416;2023-04-06T04:25:50;15.85;;;9.13;;
45077;SDS011;60508;42.622;25.416;2023-04-06T04:28:16;11.95;;;8.27;;
45077;SDS011;60508;42.622;25.416;2023-04-06T04:30:43;14.07;;;7.65;;
45077;SDS011;60508;42.622;25.416;2023-04-06T04:33:11;13.60;;;9.80;;
45077;SDS011;60508;42.622;25.416;2023-04-06T04:35:37;17.88;;;10.32;;
45077;SDS011;60508;42.622;25.416;2023-04-06T04:38:04;16.27;;;10.65;;
45077;SDS011;60508;42.622;25.416;2023-04-06T04:40:32;13.63;;;9.45;;
45077;SDS011;60508;42.622;25.416;2023-04-06T04:43:06;21.08;;;12.68;;
45077;SDS011;60508;42.622;25.416;2023-04-06T04:45:33;24.65;;;10.57;;
45077;SDS011;60508;42.622;25.416;2023-04-06T04:48:19;21.25;;;9.68;;
45077;SDS011;60508;42.622;25.416;2023-04-06T04:50:51;19.38;;;9.60;;
45077;SDS011;60508;42.622;25.416;2023-04-06T04:53:20;11.07;;;8.32;;
45077;SDS011;60508;42.622;25.416;2023-04-06T04:55:47;12.07;;;6.88;;
45077;SDS011;60508;42.622;25.416;2023-04-06T04:58:13;9.80;;;7.03;;
45077;SDS011;60508;42.622;25.416;2023-04-06T05:00:50;16.30;;;7.47;;
45077;SDS011;60508;42.622;25.416;2023-04-06T05:03:21;9.10;;;7.70;;
45077;SDS011;60508;42.622;25.416;2023-04-06T05:05:55;8.98;;;7.15;;
45077;SDS011;60508;42.622;25.416;2023-04-06T05:08:25;9.55;;;6.47;;
45077;SDS011;60508;42.622;25.416;2023-04-06T05:10:51;11.15;;;7.82;;
45077;SDS011;60508;42.622;25.416;2023-04-06T05:13:18;15.73;;;11.15;;
45077;SDS011;60508;42.622;25.416;2023-04-06T05:15:47;32.43;;;18.17;;
45077;SDS011;60508;42.622;25.416;2023-04-06T05:20:52;24.33;;;18.13;;
45077;SDS011;60508;42.622;25.416;2023-04-06T05:23:24;15.90;;;12.05;;
45077;SDS011;60508;42.622;25.416;2023-04-06T05:25:51;10.27;;;8.60;;
45077;SDS011;60508;42.622;25.416;2023-04-06T05:28:20;9.13;;;7.75;;
45077;SDS011;60508;42.622;25.416;2023-04-06T05:31:01;10.13;;;7.43;;
45077;SDS011;60508;42.622;25.416;2023-04-06T05:33:33;9.85;;;7.40;;
45077;SDS011;60508;42.622;25.416;2023-04-06T05:36:04;12.15;;;8.18;;
45077;SDS011;60508;42.622;25.416;2023-04-06T05:38:34;11.80;;;8.55;;
45077;SDS011;60508;42.622;25.416;2023-04-06T05:41:09;10.05;;;7.75;;
45077;SDS011;60508;42.622;25.416;2023-04-06T05:43:36;21.60;;;9.55;;
45077;SDS011;60508;42.622;25.416;2023-04-06T05:46:02;14.13;;;10.57;;
45077;SDS011;60508;42.622;25.416;2023-04-06T05:48:28;15.45;;;11.52;;
45077;SDS011;60508;42.622;25.416;2023-04-06T05:50:54;24.33;;;13.40;;
45077;SDS011;60508;42.622;25.416;2023-04-06T05:53:27;20.50;;;14.27;;
45077;SDS011;60508;42.622;25.416;2023-04-06T05:56:00;15.80;;;10.98;;
45077;SDS011;60508;42.622;25.416;2023-04-06T05:58:27;19.88;;;12.75;;
45077;SDS011;60508;42.622;25.416;2023-04-06T06:00:57;21.15;;;14.52;;
45077;SDS011;60508;42.622;25.416;2023-04-06T06:03:25;22.85;;;15.30;;
45077;SDS011;60508;42.622;25.416;2023-04-06T06:08:29;17.08;;;11.10;;
45077;SDS011;60508;42.622;25.416;2023-04-06T06:10:56;19.02;;;13.13;;
45077;SDS011;60508;42.622;25.416;2023-04-06T06:13:24;23.48;;;14.88;;
45077;SDS011;60508;42.622;25.416;2023-04-06T06:15:51;19.00;;;12.25;;
45077;SDS011;60508;42.622;25.416;2023-04-06T06:18:19;17.27;;;11.68;;
45077;SDS011;60508;42.622;25.416;2023-04-06T06:20:48;19.13;;;12.52;;
45077;SDS011;60508;42.622;25.416;2023-04-06T06:23:15;18.88;;;12.75;;
45077;SDS011;60508;42.622;25.416;2023-04-06T06:25:42;20.85;;;12.00;;
45077;SDS011;60508;42.622;25.416;2023-04-06T06:28:08;16.17;;;11.55;;
45077;SDS011;60508;42.622;25.416;2023-04-06T06:30:35;12.13;;;9.07;;
45077;SDS011;60508;42.622;25.416;2023-04-06T06:33:02;16.35;;;12.25;;
45077;SDS011;60508;42.622;25.416;2023-04-06T06:35:30;15.95;;;11.35;;
45077;SDS011;60508;42.622;25.416;2023-04-06T06:37:57;17.52;;;11.40;;
45077;SDS011;60508;42.622;25.416;2023-04-06T06:40:26;18.90;;;11.80;;
45077;SDS011;60508;42.622;25.416;2023-04-06T06:42:54;14.23;;;10.55;;
45077;SDS011;60508;42.622;25.416;2023-04-06T06:45:28;13.68;;;10.30;;
45077;SDS011;60508;42.622;25.416;2023-04-06T06:47:55;17.23;;;11.07;;
45077;SDS011;60508;42.622;25.416;2023-04-06T06:50:21;13.50;;;10.07;;
45077;SDS011;60508;42.622;25.416;2023-04-06T06:52:48;13.82;;;10.68;;
45077;SDS011;60508;42.622;25.416;2023-04-06T06:55:15;14.55;;;9.25;;
45077;SDS011;60508;42.622;25.416;2023-04-06T06:57:41;17.48;;;9.00;;
45077;SDS011;60508;42.622;25.416;2023-04-06T07:00:09;12.75;;;8.93;;
45077;SDS011;60508;42.622;25.416;2023-04-06T07:02:37;11.15;;;8.05;;
45077;SDS011;60508;42.622;25.416;2023-04-06T07:05:04;10.02;;;8.23;;
45077;SDS011;60508;42.622;25.416;2023-04-06T07:07:33;20.63;;;11.50;;
45077;SDS011;60508;42.622;25.416;2023-04-06T07:10:00;20.63;;;11.27;;
45077;SDS011;60508;42.622;25.416;2023-04-06T07:12:26;12.73;;;9.30;;
45077;SDS011;60508;42.622;25.416;2023-04-06T07:14:53;10.75;;;8.93;;
45077;SDS011;60508;42.622;25.416;2023-04-06T07:17:20;13.82;;;9.50;;
45077;SDS011;60508;42.622;25.416;2023-04-06T07:19:46;9.77;;;7.97;;
45077;SDS011;60508;42.622;25.416;2023-04-06T07:22:12;11.65;;;8.57;;
45077;SDS011;60508;42.622;25.416;2023-04-06T07:24:38;13.52;;;8.55;;
45077;SDS011;60508;42.622;25.416;2023-04-06T07:27:04;8.32;;;7.22;;
45077;SDS011;60508;42.622;25.416;2023-04-06T07:29:30;9.43;;;6.78;;
45077;SDS011;60508;42.622;25.416;2023-04-06T07:31:57;7.75;;;5.90;;
45077;SDS011;60508;42.622;25.416;2023-04-06T07:34:23;7.95;;;4.95;;
45077;SDS011;60508;42.622;25.416;2023-04-06T07:36:49;9.63;;;5.45;;
45077;SDS011;60508;42.622;25.416;2023-04-06T07:39:15;5.25;;;4.60;;
45077;SDS011;60508;42.622;25.416;2023-04-06T07:41:41;5.78;;;4.32;;
45077;SDS011;60508;42.622;25.416;2023-04-06T07:44:07;5.78;;;4.80;;
45077;SDS011;60508;42.622;25.416;2023-04-06T07:46:33;7.78;;;4.97;;
45077;SDS011;60508;42.622;25.416;2023-04-06T07:49:00;6.13;;;4.78;;
45077;SDS011;60508;42.622;25.416;2023-04-06T07:51:29;6.60;;;5.45;;
45077;SDS011;60508;42.622;25.416;2023-04-06T07:53:56;7.60;;;6.82;;
45077;SDS011;60508;42.622;25.416;2023-04-06T07:56:22;10.90;;;5.30;;
45077;SDS011;60508;42.622;25.416;2023-04-06T07:58:48;14.32;;;8.55;;
45077;SDS011;60508;42.622;25.416;2023-04-06T08:01:14;12.90;;;6.28;;
45077;SDS011;60508;42.622;25.416;2023-04-06T08:03:40;8.35;;;5.35;;
45077;SDS011;60508;42.622;25.416;2023-04-06T08:06:07;5.55;;;4.70;;
45077;SDS011;60508;42.622;25.416;2023-04-06T08:08:32;5.07;;;4.03;;
45077;SDS011;60508;42.622;25.416;2023-04-06T08:10:58;4.43;;;3.92;;
45077;SDS011;60508;42.622;25.416;2023-04-06T08:13:24;4.22;;;3.83;;
45077;SDS011;60508;42.622;25.416;2023-04-06T08:15:51;3.92;;;3.63;;
45077;SDS011;60508;42.622;25.416;2023-04-06T08:18:17;6.10;;;4.10;;
45077;SDS011;60508;42.622;25.416;2023-04-06T08:20:43;4.25;;;3.85;;
45077;SDS011;60508;42.622;25.416;2023-04-06T08:23:09;5.35;;;4.85;;
45077;SDS011;60508;42.622;25.416;2023-04-06T08:25:36;8.45;;;6.15;;
45077;SDS011;60508;42.622;25.416;2023-04-06T08:28:03;14.50;;;7.68;;
45077;SDS011;60508;42.622;25.416;2023-04-06T08:30:29;6.35;;;5.05;;
45077;SDS011;60508;42.622;25.416;2023-04-06T08:32:55;4.80;;;4.10;;
45077;SDS011;60508;42.622;25.416;2023-04-06T08:35:21;6.60;;;3.95;;
45077;SDS011;60508;42.622;25.416;2023-04-06T08:37:47;4.32;;;3.92;;
45077;SDS011;60508;42.622;25.416;2023-04-06T08:40:13;5.50;;;3.80;;
45077;SDS011;60508;42.622;25.416;2023-04-06T08:42:40;4.45;;;4.05;;
45077;SDS011;60508;42.622;25.416;2023-04-06T08:45:15;4.43;;;4.03;;
45077;SDS011;60508;42.622;25.416;2023-04-06T08:47:42;4.45;;;3.80;;
45077;SDS011;60508;42.622;25.416;2023-04-06T08:50:09;6.72;;;4.65;;
45077;SDS011;60508;42.622;25.416;2023-04-06T08:52:37;5.78;;;4.15;;
45077;SDS011;60508;42.622;25.416;2023-04-06T08:55:04;6.50;;;4.18;;
45077;SDS011;60508;42.622;25.416;2023-04-06T08:57:30;3.83;;;3.45;;
45077;SDS011;60508;42.622;25.416;2023-04-06T08:59:57;4.57;;;4.10;;
45077;SDS011;60508;42.622;25.416;2023-04-06T09:02:25;7.50;;;5.87;;
45077;SDS011;60508;42.622;25.416;2023-04-06T09:04:53;6.47;;;5.20;;
45077;SDS011;60508;42.622;25.416;2023-04-06T09:07:20;8.00;;;5.35;;
45077;SDS011;60508;42.622;25.416;2023-04-06T09:09:47;6.05;;;4.68;;
45077;SDS011;60508;42.622;25.416;2023-04-06T09:14:52;6.68;;;5.25;;
45077;SDS011;60508;42.622;25.416;2023-04-06T09:17:20;6.82;;;5.70;;
45077;SDS011;60508;42.622;25.416;2023-04-06T09:19:47;6.38;;;4.38;;
45077;SDS011;60508;42.622;25.416;2023-04-06T09:22:13;4.88;;;4.40;;
45077;SDS011;60508;42.622;25.416;2023-04-06T09:24:44;5.10;;;4.53;;
45077;SDS011;60508;42.622;25.416;2023-04-06T09:27:12;6.40;;;4.20;;
45077;SDS011;60508;42.622;25.416;2023-04-06T09:29:38;4.70;;;4.30;;
45077;SDS011;60508;42.622;25.416;2023-04-06T09:32:06;4.10;;;3.70;;
45077;SDS011;60508;42.622;25.416;2023-04-06T09:34:39;4.00;;;3.53;;
45077;SDS011;60508;42.622;25.416;2023-04-06T09:37:15;7.53;;;5.75;;
45077;SDS011;60508;42.622;25.416;2023-04-06T09:39:43;4.18;;;3.75;;
45077;SDS011;60508;42.622;25.416;2023-04-06T09:42:26;6.35;;;4.18;;
45077;SDS011;60508;42.622;25.416;2023-04-06T09:44:52;6.32;;;5.55;;
45077;SDS011;60508;42.622;25.416;2023-04-06T09:47:20;5.15;;;4.57;;
45077;SDS011;60508;42.622;25.416;2023-04-06T09:49:58;4.40;;;4.00;;
45077;SDS011;60508;42.622;25.416;2023-04-06T09:52:26;4.05;;;3.65;;
45077;SDS011;60508;42.622;25.416;2023-04-06T09:54:59;5.53;;;3.45;;
45077;SDS011;60508;42.622;25.416;2023-04-06T09:57:35;3.00;;;2.47;;
45077;SDS011;60508;42.622;25.416;2023-04-06T10:00:11;3.03;;;2.72;;
45077;SDS011;60508;42.622;25.416;2023-04-06T10:05:31;3.75;;;3.45;;
45077;SDS011;60508;42.622;25.416;2023-04-06T10:08:06;4.63;;;3.08;;
45077;SDS011;60508;42.622;25.416;2023-04-06T10:10:37;5.18;;;3.80;;
45077;SDS011;60508;42.622;25.416;2023-04-06T10:13:03;5.05;;;4.43;;
45077;SDS011;60508;42.622;25.416;2023-04-06T10:15:30;3.58;;;3.28;;
45077;SDS011;60508;42.622;25.416;2023-04-06T10:18:00;5.35;;;4.40;;
45077;SDS011;60508;42.622;25.416;2023-04-06T10:23:09;3.10;;;2.80;;
45077;SDS011;60508;42.622;25.416;2023-04-06T10:25:36;3.90;;;3.50;;
45077;SDS011;60508;42.622;25.416;2023-04-06T10:28:06;2.45;;;2.15;;
45077;SDS011;60508;42.622;25.416;2023-04-06T10:30:34;3.78;;;3.47;;
45077;SDS011;60508;42.622;25.416;2023-04-06T10:33:16;3.20;;;2.90;;
45077;SDS011;60508;42.622;25.416;2023-04-06T10:35:44;3.70;;;3.40;;
45077;SDS011;60508;42.622;25.416;2023-04-06T10:38:10;2.67;;;2.47;;
45077;SDS011;60508;42.622;25.416;2023-04-06T10:43:10;2.95;;;2.67;;
45077;SDS011;60508;42.622;25.416;2023-04-06T10:45:37;4.10;;;3.70;;
45077;SDS011;60508;42.622;25.416;2023-04-06T10:50:41;3.15;;;2.75;;
45077;SDS011;60508;42.622;25.416;2023-04-06T10:53:10;3.55;;;3.25;;
45077;SDS011;60508;42.622;25.416;2023-04-06T10:55:38;4.20;;;3.40;;
45077;SDS011;60508;42.622;25.416;2023-04-06T10:58:07;4.20;;;3.80;;
45077;SDS011;60508;42.622;25.416;2023-04-06T11:00:33;3.53;;;3.22;;
45077;SDS011;60508;42.622;25.416;2023-04-06T11:03:01;5.43;;;3.90;;
45077;SDS011;60508;42.622;25.416;2023-04-06T11:05:27;6.35;;;3.05;;
45077;SDS011;60508;42.622;25.416;2023-04-06T11:07:53;3.85;;;3.45;;
45077;SDS011;60508;42.622;25.416;2023-04-06T11:10:20;6.78;;;5.15;;
45077;SDS011;60508;42.622;25.416;2023-04-06T11:12:55;4.20;;;3.58;;
45077;SDS011;60508;42.622;25.416;2023-04-06T11:15:22;3.45;;;3.15;;
45077;SDS011;60508;42.622;25.416;2023-04-06T11:17:48;6.03;;;3.13;;
45077;SDS011;60508;42.622;25.416;2023-04-06T11:20:15;3.60;;;3.30;;
45077;SDS011;60508;42.622;25.416;2023-04-06T11:22:47;3.58;;;3.28;;
45077;SDS011;60508;42.622;25.416;2023-04-06T11:25:14;3.22;;;3.03;;
45077;SDS011;60508;42.622;25.416;2023-04-06T11:27:42;3.40;;;3.10;;
45077;SDS011;60508;42.622;25.416;2023-04-06T11:30:09;3.30;;;3.00;;
45077;SDS011;60508;42.622;25.416;2023-04-06T11:32:40;3.15;;;2.85;;
45077;SDS011;60508;42.622;25.416;2023-04-06T11:35:11;4.70;;;3.70;;
45077;SDS011;60508;42.622;25.416;2023-04-06T11:37:45;3.92;;;3.50;;
45077;SDS011;60508;42.622;25.416;2023-04-06T11:40:11;3.90;;;3.50;;
45077;SDS011;60508;42.622;25.416;2023-04-06T11:42:37;3.50;;;3.20;;
45077;SDS011;60508;42.622;25.416;2023-04-06T11:45:04;3.20;;;2.95;;
45077;SDS011;60508;42.622;25.416;2023-04-06T11:47:37;4.28;;;3.15;;
45077;SDS011;60508;42.622;25.416;2023-04-06T11:50:07;2.72;;;2.38;;
45077;SDS011;60508;42.622;25.416;2023-04-06T11:52:33;2.83;;;2.63;;
45077;SDS011;60508;42.622;25.416;2023-04-06T11:55:09;2.55;;;2.35;;
45077;SDS011;60508;42.622;25.416;2023-04-06T11:57:38;6.22;;;4.13;;
45077;SDS011;60508;42.622;25.416;2023-04-06T12:00:05;3.33;;;2.70;;
45077;SDS011;60508;42.622;25.416;2023-04-06T12:02:32;3.17;;;2.88;;
45077;SDS011;60508;42.622;25.416;2023-04-06T12:04:58;3.90;;;3.50;;
45077;SDS011;60508;42.622;25.416;2023-04-06T12:07:25;9.35;;;4.80;;
45077;SDS011;60508;42.622;25.416;2023-04-06T12:09:51;2.92;;;2.72;;
45077;SDS011;60508;42.622;25.416;2023-04-06T12:12:17;4.50;;;3.70;;
45077;SDS011;60508;42.622;25.416;2023-04-06T12:14:45;3.03;;;2.83;;
45077;SDS011;60508;42.622;25.416;2023-04-06T12:17:11;2.80;;;2.60;;
45077;SDS011;60508;42.622;25.416;2023-04-06T12:19:37;2.85;;;2.47;;
45077;SDS011;60508;42.622;25.416;2023-04-06T12:22:03;2.60;;;2.40;;
45077;SDS011;60508;42.622;25.416;2023-04-06T12:24:29;2.65;;;2.45;;
45077;SDS011;60508;42.622;25.416;2023-04-06T12:26:55;2.22;;;1.95;;
45077;SDS011;60508;42.622;25.416;2023-04-06T12:29:23;2.42;;;2.22;;
45077;SDS011;60508;42.622;25.416;2023-04-06T12:31:50;2.30;;;2.10;;
45077;SDS011;60508;42.622;25.416;2023-04-06T12:34:16;3.80;;;3.30;;
45077;SDS011;60508;42.622;25.416;2023-04-06T12:36:43;2.08;;;1.90;;
45077;SDS011;60508;42.622;25.416;2023-04-06T12:39:09;3.47;;;2.30;;
45077;SDS011;60508;42.622;25.416;2023-04-06T12:41:36;2.20;;;1.95;;
45077;SDS011;60508;42.622;25.416;2023-04-06T12:44:06;2.33;;;2.00;;
45077;SDS011;60508;42.622;25.416;2023-04-06T12:46:32;2.63;;;1.58;;
45077;SDS011;60508;42.622;25.416;2023-04-06T12:48:58;2.20;;;2.00;;
45077;SDS011;60508;42.622;25.416;2023-04-06T12:51:28;2.92;;;2.15;;
45077;SDS011;60508;42.622;25.416;2023-04-06T12:53:54;2.67;;;2.25;;
45077;SDS011;60508;42.622;25.416;2023-04-06T12:56:21;3.08;;;2.35;;
45077;SDS011;60508;42.622;25.416;2023-04-06T12:58:47;2.55;;;2.35;;
45077;SDS011;60508;42.622;25.416;2023-04-06T13:01:16;2.33;;;2.13;;
45077;SDS011;60508;42.622;25.416;2023-04-06T13:03:42;2.50;;;2.30;;
45077;SDS011;60508;42.622;25.416;2023-04-06T13:06:08;4.70;;;2.88;;
45077;SDS011;60508;42.622;25.416;2023-04-06T13:08:35;2.60;;;2.40;;
45077;SDS011;60508;42.622;25.416;2023-04-06T13:11:02;2.83;;;2.58;;
45077;SDS011;60508;42.622;25.416;2023-04-06T13:13:29;4.13;;;3.35;;
45077;SDS011;60508;42.622;25.416;2023-04-06T13:16:00;3.38;;;2.72;;
45077;SDS011;60508;42.622;25.416;2023-04-06T13:18:29;3.28;;;2.65;;
45077;SDS011;60508;42.622;25.416;2023-04-06T13:20:57;3.35;;;2.60;;
45077;SDS011;60508;42.622;25.416;2023-04-06T13:23:23;6.50;;;3.40;;
45077;SDS011;60508;42.622;25.416;2023-04-06T13:25:59;4.80;;;2.83;;
45077;SDS011;60508;42.622;25.416;2023-04-06T13:28:31;3.15;;;2.30;;
45077;SDS011;60508;42.622;25.416;2023-04-06T13:30:59;3.10;;;2.80;;
45077;SDS011;60508;42.622;25.416;2023-04-06T13:33:27;3.50;;;3.20;;
45077;SDS011;60508;42.622;25.416;2023-04-06T13:35:53;4.45;;;3.40;;
45077;SDS011;60508;42.622;25.416;2023-04-06T13:38:20;7.50;;;2.67;;
45077;SDS011;60508;42.622;25.416;2023-04-06T13:40:49;3.25;;;2.95;;
45077;SDS011;60508;42.622;25.416;2023-04-06T13:43:16;4.15;;;3.45;;
45077;SDS011;60508;42.622;25.416;2023-04-06T13:45:49;11.80;;;3.22;;
45077;SDS011;60508;42.622;25.416;2023-04-06T13:48:17;5.85;;;5.25;;
45077;SDS011;60508;42.622;25.416;2023-04-06T13:50:43;5.03;;;2.20;;
45077;SDS011;60508;42.622;25.416;2023-04-06T13:53:12;3.97;;;2.73;;
45077;SDS011;60508;42.622;25.416;2023-04-06T13:55:38;5.05;;;2.63;;
45077;SDS011;60508;42.622;25.416;2023-04-06T13:58:04;6.63;;;4.30;;
45077;SDS011;60508;42.622;25.416;2023-04-06T14:00:30;4.88;;;3.53;;
45077;SDS011;60508;42.622;25.416;2023-04-06T14:02:57;5.93;;;4.25;;
45077;SDS011;60508;42.622;25.416;2023-04-06T14:05:23;4.35;;;3.10;;
45077;SDS011;60508;42.622;25.416;2023-04-06T14:07:49;11.45;;;4.18;;
45077;SDS011;60508;42.622;25.416;2023-04-06T14:10:16;4.90;;;4.10;;
45077;SDS011;60508;42.622;25.416;2023-04-06T14:12:42;3.60;;;2.80;;
45077;SDS011;60508;42.622;25.416;2023-04-06T14:15:11;5.65;;;3.63;;
45077;SDS011;60508;42.622;25.416;2023-04-06T14:17:37;4.13;;;3.17;;
45077;SDS011;60508;42.622;25.416;2023-04-06T14:20:05;3.80;;;3.10;;
45077;SDS011;60508;42.622;25.416;2023-04-06T14:22:32;3.85;;;3.45;;
45077;SDS011;60508;42.622;25.416;2023-04-06T14:24:58;9.45;;;3.95;;
45077;SDS011;60508;42.622;25.416;2023-04-06T14:27:24;3.95;;;3.30;;
45077;SDS011;60508;42.622;25.416;2023-04-06T14:29:51;3.60;;;3.03;;
45077;SDS011;60508;42.622;25.416;2023-04-06T14:32:19;3.50;;;3.20;;
45077;SDS011;60508;42.622;25.416;2023-04-06T14:34:46;5.97;;;5.22;;
45077;SDS011;60508;42.622;25.416;2023-04-06T14:37:12;3.33;;;3.03;;
45077;SDS011;60508;42.622;25.416;2023-04-06T14:39:38;3.55;;;3.20;;
45077;SDS011;60508;42.622;25.416;2023-04-06T14:42:05;1.90;;;1.80;;
45077;SDS011;60508;42.622;25.416;2023-04-06T14:44:32;2.10;;;2.00;;
45077;SDS011;60508;42.622;25.416;2023-04-06T14:46:59;3.95;;;2.72;;
45077;SDS011;60508;42.622;25.416;2023-04-06T14:49:25;1.88;;;1.73;;
45077;SDS011;60508;42.622;25.416;2023-04-06T14:51:53;6.20;;;3.17;;
45077;SDS011;60508;42.622;25.416;2023-04-06T14:54:20;2.65;;;2.45;;
45077;SDS011;60508;42.622;25.416;2023-04-06T14:56:46;3.38;;;3.08;;
45077;SDS011;60508;42.622;25.416;2023-04-06T14:59:12;5.53;;;3.03;;
45077;SDS011;60508;42.622;25.416;2023-04-06T15:01:39;2.90;;;2.58;;